Terminal Aerodrome Forecast
Issued by NWS Wichita, KS

Home | Current Version | Previous Version | Text Only | Print | Product List | Glossary On
Versions: 1 2 3 4 5 6 7 8 9 10 11 12 13 14 15 16 17 18 19
000
FTUS43 KICT 301247 AAB
TAFICT
TAF AMD
KICT 301247Z 3013/3112 03010KT 5SM -TSRA SCT020 BKN050CB
      TEMPO 3013/3014 2SM +TSRA BKN020CB
     FM301500 10007KT P6SM -RA SCT040 BKN080
     FM301630 11010KT P6SM SCT080 BKN100
     FM310000 12007KT P6SM SCT250=

USA.gov is the U.S. government's official web portal to all federal, state and local government web resources and services.